createdAt,value
2017-12-29T00:00:37.458Z,99.34
2017-12-29T00:01:37.125Z,98.77
2017-12-29T00:02:37.108Z,99.53
2017-12-29T00:03:37.350Z,98.96
2017-12-29T00:04:37.059Z,98.96
2017-12-29T00:05:37.298Z,99.53
2017-12-29T00:06:37.011Z,99.53
2017-12-29T00:07:37.249Z,99.91
2017-12-29T00:08:37.228Z,99.25
2017-12-29T00:09:36.945Z,99.25
2017-12-29T00:10:36.920Z,98.87
2017-12-29T00:11:37.160Z,98.96
2017-12-29T00:12:36.878Z,98.96
2017-12-29T00:13:36.856Z,98.49
2017-12-29T00:14:36.833Z,98.87
2017-12-29T00:15:37.069Z,99.15
2017-12-29T00:16:37.251Z,99.34
2017-12-29T00:17:37.025Z,99.15
2017-12-29T00:18:37.005Z,98.96
2017-12-29T00:19:36.980Z,99.15
2017-12-29T00:20:36.703Z,98.58
2017-12-29T00:21:36.938Z,98.96
2017-12-29T00:22:36.915Z,98.06
2017-12-29T00:23:36.631Z,98.06
2017-12-29T00:24:36.915Z,98.06
2017-12-29T00:25:36.844Z,97.59
2017-12-29T00:26:36.557Z,97.02
2017-12-29T00:27:36.540Z,97.59
2017-12-29T00:28:36.787Z,97.21
2017-12-29T00:29:36.753Z,96.26
2017-12-29T00:30:36.734Z,97.11
2017-12-29T00:31:36.452Z,96.92
2017-12-29T00:32:36.424Z,96.36
2017-12-29T00:33:36.401Z,96.73
2017-12-29T00:34:36.644Z,96.64
2017-12-29T00:35:36.621Z,96.73
2017-12-29T00:36:36.594Z,96.07
2017-12-29T00:37:36.571Z,96.45
2017-12-29T00:38:36.290Z,96.26
2017-12-29T00:39:36.261Z,96.07
2017-12-29T00:40:36.239Z,96.26
2017-12-29T00:41:36.219Z,96.07
2017-12-29T00:42:36.197Z,96.36
2017-12-29T00:43:36.175Z,96.26
2017-12-29T00:44:36.150Z,96.07
2017-12-29T00:45:36.442Z,96.26
2017-12-29T00:46:36.371Z,95.79
2017-12-29T00:47:36.083Z,95.88
2017-12-29T00:48:36.323Z,96.07
2017-12-29T00:49:36.306Z,95.88
2017-12-29T00:50:36.015Z,95.31
2017-12-29T00:51:36.257Z,95.31
2017-12-29T00:52:36.230Z,95.41
2017-12-29T00:53:36.215Z,95.22
2017-12-29T00:54:36.186Z,95.12
2017-12-29T00:55:36.164Z,95.41
2017-12-29T00:56:36.140Z,95.41
2017-12-29T00:57:36.169Z,95.6
2017-12-29T00:58:36.092Z,95.69
2017-12-29T00:59:36.073Z,95.31
2017-12-29T01:00:35.793Z,95.6
2017-12-29T01:01:35.763Z,95.03
2017-12-29T01:02:35.741Z,94.93
2017-12-29T01:03:35.716Z,95.22
2017-12-29T01:04:35.957Z,95.03
2017-12-29T01:05:35.937Z,95.22
2017-12-29T01:06:35.921Z,95.22
2017-12-29T01:07:35.954Z,94.93
2017-12-29T01:08:35.607Z,94.93
2017-12-29T01:09:35.587Z,95.12
2017-12-29T01:10:35.559Z,94.74
2017-12-29T01:11:35.541Z,94.56
2017-12-29T01:12:35.515Z,94.84
2017-12-29T01:13:35.489Z,94.84
2017-12-29T01:14:35.467Z,94.56
2017-12-29T01:15:35.707Z,94.65
2017-12-29T01:16:35.422Z,94.65
2017-12-29T01:17:35.672Z,94.84
2017-12-29T01:18:35.640Z,94.74
2017-12-29T01:19:35.357Z,94.84
2017-12-29T01:20:35.605Z,94.93
2017-12-29T01:21:35.311Z,94.65
2017-12-29T01:22:35.286Z,94.46
2017-12-29T01:23:35.265Z,94.18
2017-12-29T01:24:35.504Z,94.18
2017-12-29T01:25:35.483Z,94.18
2017-12-29T01:26:35.203Z,94.08
2017-12-29T01:27:35.441Z,94.65
2017-12-29T01:28:35.414Z,94.37
2017-12-29T01:29:35.131Z,93.99
2017-12-29T01:30:35.376Z,94.18
2017-12-29T01:31:35.346Z,93.99
2017-12-29T01:32:35.326Z,94.27
2017-12-29T01:33:35.301Z,93.89
2017-12-29T01:34:35.278Z,93.89
2017-12-29T01:35:35.258Z,93.42
2017-12-29T01:36:34.975Z,93.51
2017-12-29T01:37:34.947Z,93.7
2017-12-29T01:38:34.925Z,93.89
2017-12-29T01:39:34.898Z,93.51
2017-12-29T01:40:35.149Z,93.23
2017-12-29T01:41:35.118Z,93.04
2017-12-29T01:42:34.830Z,93.04
2017-12-29T01:43:34.807Z,93.13
2017-12-29T01:44:34.785Z,93.04
2017-12-29T01:45:35.023Z,93.23
2017-12-29T01:46:35.002Z,92.94
2017-12-29T01:47:34.718Z,93.04
2017-12-29T01:48:34.696Z,93.04
2017-12-29T01:49:34.933Z,93.42
2017-12-29T01:50:34.918Z,92.94
2017-12-29T01:51:34.890Z,92.94
2017-12-29T01:52:34.865Z,93.23
2017-12-29T01:53:34.581Z,93.13
2017-12-29T01:54:34.819Z,93.32
2017-12-29T01:55:34.793Z,92.66
2017-12-29T01:56:34.771Z,92.66
2017-12-29T01:57:34.750Z,92.28
2017-12-29T01:58:34.734Z,92.94
2017-12-29T01:59:34.708Z,92.38
2017-12-29T02:00:34.682Z,92.28
2017-12-29T02:01:34.659Z,92.19
2017-12-29T02:02:34.381Z,92.33
2017-12-29T02:03:34.612Z,91.95
2017-12-29T02:04:34.601Z,91.48
2017-12-29T02:05:34.565Z,91.67
2017-12-29T02:06:34.285Z,91.48
2017-12-29T02:07:34.519Z,91.67
2017-12-29T02:08:34.235Z,91.38
2017-12-29T02:09:34.475Z,90.91
2017-12-29T02:10:34.188Z,91.1
2017-12-29T02:11:34.427Z,91
2017-12-29T02:12:34.140Z,91
2017-12-29T02:13:34.119Z,91.19
2017-12-29T02:14:34.358Z,90.72
2017-12-29T02:15:34.333Z,90.34
2017-12-29T02:16:34.310Z,90.15
2017-12-29T02:17:34.029Z,90.72
2017-12-29T02:18:34.264Z,90.44
2017-12-29T02:19:33.976Z,90.44
2017-12-29T02:20:33.960Z,90.44
2017-12-29T02:21:34.200Z,90.25
2017-12-29T02:22:34.174Z,90.15
2017-12-29T02:23:34.151Z,90.34
2017-12-29T02:24:34.134Z,90.44
2017-12-29T02:25:34.103Z,90.25
2017-12-29T02:26:34.092Z,89.96
2017-12-29T02:27:34.055Z,89.96
2017-12-29T02:28:33.773Z,89.77
2017-12-29T02:29:34.012Z,89.77
2017-12-29T02:30:33.735Z,89.77
2017-12-29T02:31:33.969Z,89.11
2017-12-29T02:32:33.946Z,89.3
2017-12-29T02:33:33.915Z,88.54
2017-12-29T02:34:33.896Z,88.07
2017-12-29T02:35:33.608Z,88.73
2017-12-29T02:36:33.591Z,88.73
2017-12-29T02:37:33.829Z,89.2
2017-12-29T02:38:33.818Z,88.92
2017-12-29T02:39:33.516Z,87.88
2017-12-29T02:40:33.492Z,88.73
2017-12-29T02:41:33.468Z,89.01
2017-12-29T02:42:33.707Z,88.26
2017-12-29T02:43:33.418Z,88.82
2017-12-29T02:44:33.660Z,88.54
2017-12-29T02:45:33.380Z,87.98
2017-12-29T02:46:33.616Z,88.82
2017-12-29T02:47:33.324Z,88.73
2017-12-29T02:48:33.569Z,89.11
2017-12-29T02:49:33.543Z,88.17
2017-12-29T02:50:33.521Z,87.69
2017-12-29T02:51:33.501Z,87.4
2017-12-29T02:52:33.477Z,87.4
2017-12-29T02:53:33.186Z,87.4
2017-12-29T02:54:33.429Z,87.5
2017-12-29T02:55:33.404Z,86.46
2017-12-29T02:56:33.121Z,86.27
2017-12-29T02:57:33.094Z,87.21
2017-12-29T02:58:33.344Z,86.36
2017-12-29T02:59:33.306Z,86.55
2017-12-29T03:00:33.022Z,86.27
2017-12-29T03:01:33.262Z,85.99
2017-12-29T03:02:33.241Z,85.89
2017-12-29T03:03:33.215Z,86.36
2017-12-29T03:04:33.190Z,85.99
2017-12-29T03:05:33.170Z,85.19
2017-12-29T03:06:32.880Z,85.99
2017-12-29T03:07:33.126Z,85.23
2017-12-29T03:08:32.834Z,84.9
2017-12-29T03:09:32.816Z,84.71
2017-12-29T03:10:32.788Z,85
2017-12-29T03:11:32.762Z,85.42
2017-12-29T03:12:32.743Z,85.61
2017-12-29T03:13:32.716Z,85
2017-12-29T03:14:32.962Z,84.71
2017-12-29T03:15:32.932Z,85
2017-12-29T03:16:32.645Z,85
2017-12-29T03:17:32.625Z,84.9
2017-12-29T03:18:32.857Z,84.81
2017-12-29T03:19:32.840Z,84.71
2017-12-29T03:20:32.551Z,84.71
2017-12-29T03:21:32.793Z,84.9
2017-12-29T03:22:32.765Z,85.38
2017-12-29T03:23:32.744Z,85.19
2017-12-29T03:24:32.456Z,84.71
2017-12-29T03:25:32.432Z,85
2017-12-29T03:26:32.671Z,84.9
2017-12-29T03:27:32.386Z,84.9
2017-12-29T03:28:32.362Z,84.94
2017-12-29T03:29:32.600Z,85.51
2017-12-29T03:30:32.580Z,85.32
2017-12-29T03:31:32.288Z,85.23
2017-12-29T03:32:32.535Z,85.51
2017-12-29T03:33:32.240Z,85.42
2017-12-29T03:34:32.216Z,85.04
2017-12-29T03:35:32.462Z,85.51
2017-12-29T03:36:32.431Z,84.9
2017-12-29T03:37:32.145Z,84.52
2017-12-29T03:38:32.121Z,84.9
2017-12-29T03:39:32.358Z,85.09
2017-12-29T03:40:32.334Z,84.61
2017-12-29T03:41:32.052Z,84.33
2017-12-29T03:42:32.291Z,84.61
2017-12-29T03:43:32.265Z,84.9
2017-12-29T03:44:32.244Z,85.32
2017-12-29T03:45:31.956Z,85.09
2017-12-29T03:46:31.939Z,85.47
2017-12-29T03:47:31.907Z,85.61
2017-12-29T03:48:31.884Z,85.42
2017-12-29T03:49:32.125Z,85.23
2017-12-29T03:50:32.106Z,85.19
2017-12-29T03:51:31.815Z,85.09
2017-12-29T03:52:32.054Z,84.71
2017-12-29T03:53:31.764Z,85.09
2017-12-29T03:54:32.004Z,85.38
2017-12-29T03:55:31.718Z,85.19
2017-12-29T03:56:31.692Z,85.09
2017-12-29T03:57:31.935Z,85
2017-12-29T03:58:31.646Z,84.81
2017-12-29T03:59:31.622Z,84.71
2017-12-29T04:00:31.857Z,85.19
2017-12-29T04:01:31.836Z,85.09
2017-12-29T04:02:31.551Z,85.47
2017-12-29T04:03:31.793Z,85.47
2017-12-29T04:04:31.501Z,85.47
2017-12-29T04:05:31.478Z,85.75
2017-12-29T04:06:31.460Z,85.47
2017-12-29T04:07:31.434Z,85.38
2017-12-29T04:08:31.670Z,85.28
2017-12-29T04:09:31.384Z,84.9
2017-12-29T04:10:31.623Z,85.47
2017-12-29T04:11:31.335Z,85.66
2017-12-29T04:12:31.574Z,84.71
2017-12-29T04:13:31.285Z,84.9
2017-12-29T04:14:31.532Z,84.9
2017-12-29T04:15:31.508Z,85.09
2017-12-29T04:16:31.483Z,85.47
2017-12-29T04:17:31.653Z,84.9
2017-12-29T04:18:31.432Z,85.57
2017-12-29T04:19:31.143Z,85.38
2017-12-29T04:20:31.388Z,85.66
2017-12-29T04:21:31.360Z,84.9
2017-12-29T04:22:31.334Z,85.09
2017-12-29T04:23:31.309Z,85.09
2017-12-29T04:24:31.027Z,84.9
2017-12-29T04:25:31.000Z,85.38
2017-12-29T04:26:31.237Z,85.09
2017-12-29T04:27:31.216Z,85.47
2017-12-29T04:28:30.929Z,85.38
2017-12-29T04:29:31.167Z,85.38
2017-12-29T04:30:31.139Z,85.19
2017-12-29T04:31:30.856Z,85
2017-12-29T04:32:30.831Z,85.38
2017-12-29T04:33:30.807Z,85.09
2017-12-29T04:34:31.043Z,85.09
2017-12-29T04:35:31.023Z,85
2017-12-29T04:36:30.740Z,84.81
2017-12-29T04:37:30.980Z,84.23
2017-12-29T04:38:30.956Z,84.23
2017-12-29T04:39:30.926Z,84.23
2017-12-29T04:40:30.902Z,84.33
2017-12-29T04:41:30.875Z,84.14
2017-12-29T04:42:30.856Z,83.67
2017-12-29T04:43:30.569Z,83.67
2017-12-29T04:44:30.809Z,84.14
2017-12-29T04:45:30.524Z,84.52
2017-12-29T04:46:30.503Z,84.14
2017-12-29T04:47:30.474Z,84.14
2017-12-29T04:48:30.711Z,84.14
2017-12-29T04:49:30.424Z,84.33
2017-12-29T04:50:30.413Z,84.61
2017-12-29T04:51:30.382Z,84.9
2017-12-29T04:52:30.614Z,84.14
2017-12-29T04:53:30.597Z,84.23
2017-12-29T04:54:30.302Z,84.23
2017-12-29T04:55:30.540Z,84.52
2017-12-29T04:56:30.519Z,84.52
2017-12-29T04:57:30.236Z,84.05
2017-12-29T04:58:30.468Z,84.42
2017-12-29T04:59:30.447Z,84.9
2017-12-29T05:00:30.424Z,84.42
2017-12-29T05:01:30.404Z,84.42
2017-12-29T05:02:30.384Z,83.67
2017-12-29T05:03:30.351Z,84.14
2017-12-29T05:04:30.064Z,83.67
2017-12-29T05:05:30.042Z,83.86
2017-12-29T05:06:30.015Z,83.67
2017-12-29T05:07:30.257Z,84.23
2017-12-29T05:08:29.971Z,83.67
2017-12-29T05:09:29.947Z,83.48
2017-12-29T05:10:30.179Z,84.33
2017-12-29T05:11:30.156Z,83.58
2017-12-29T05:12:30.137Z,84.14
2017-12-29T05:13:29.845Z,84.33
2017-12-29T05:14:29.823Z,84.14
2017-12-29T05:15:29.798Z,84.23
2017-12-29T05:16:30.036Z,84.61
2017-12-29T05:17:30.021Z,84.61
2017-12-29T05:18:29.725Z,84.71
2017-12-29T05:19:29.701Z,84.61
2017-12-29T05:20:29.678Z,84.33
2017-12-29T05:21:29.916Z,84.33
2017-12-29T05:22:29.895Z,83.95
2017-12-29T05:23:29.873Z,83.58
2017-12-29T05:24:29.847Z,83.86
2017-12-29T05:25:29.816Z,84.23
2017-12-29T05:26:29.797Z,83.67
2017-12-29T05:27:29.770Z,84.05
2017-12-29T05:28:29.486Z,84.05
2017-12-29T05:29:29.457Z,84.05
2017-12-29T05:30:29.701Z,84.33
2017-12-29T05:31:29.411Z,84.61
2017-12-29T05:32:29.649Z,84.61
2017-12-29T05:33:29.363Z,84.71
2017-12-29T05:34:29.660Z,84.42
2017-12-29T05:35:29.577Z,84.23
2017-12-29T05:36:29.291Z,84.05
2017-12-29T05:37:29.267Z,83.86
2017-12-29T05:38:29.243Z,84.14
2017-12-29T05:39:29.217Z,84.23
2017-12-29T05:40:29.192Z,84.33
2017-12-29T05:41:29.172Z,84.61
2017-12-29T05:42:29.408Z,84.33
2017-12-29T05:43:29.383Z,84.71
2017-12-29T05:44:29.097Z,84.14
2017-12-29T05:45:29.072Z,84.05
2017-12-29T05:46:29.047Z,84.61
2017-12-29T05:47:29.286Z,84.71
2017-12-29T05:48:29.000Z,84.61
2017-12-29T05:49:28.972Z,84.9
2017-12-29T05:50:28.957Z,85.38
2017-12-29T05:51:29.191Z,85
2017-12-29T05:52:28.905Z,85
2017-12-29T05:53:29.141Z,84.9
2017-12-29T05:54:28.855Z,84.52
2017-12-29T05:55:29.096Z,84.52
2017-12-29T05:56:29.070Z,84.52
2017-12-29T05:57:28.780Z,84.14
2017-12-29T05:58:28.760Z,84.23
2017-12-29T05:59:28.730Z,84.23
2017-12-29T06:00:28.973Z,83.76
2017-12-29T06:01:28.684Z,83.67
2017-12-29T06:02:28.659Z,84.33
2017-12-29T06:03:28.952Z,84.14
2017-12-29T06:04:28.887Z,84.33
2017-12-29T06:05:28.851Z,83.76
2017-12-29T06:06:28.827Z,83.95
2017-12-29T06:07:28.801Z,84.05
2017-12-29T06:08:28.517Z,84.23
2017-12-29T06:09:28.750Z,84.05
2017-12-29T06:10:28.728Z,84.05
2017-12-29T06:11:28.443Z,84.52
2017-12-29T06:12:28.415Z,83.67
2017-12-29T06:13:28.655Z,83.67
2017-12-29T06:14:28.371Z,83.95
2017-12-29T06:15:28.347Z,83.95
2017-12-29T06:16:28.590Z,83.95
2017-12-29T06:17:28.498Z,84.14
2017-12-29T06:18:28.276Z,83.48
2017-12-29T06:19:28.251Z,84.05
2017-12-29T06:20:28.486Z,83.76
2017-12-29T06:21:28.463Z,84.33
2017-12-29T06:22:28.176Z,84.52
2017-12-29T06:23:28.153Z,83.95
2017-12-29T06:24:28.392Z,84.33
2017-12-29T06:25:28.104Z,84.23
2017-12-29T06:26:28.078Z,84.14
2017-12-29T06:27:28.317Z,84.23
2017-12-29T06:28:28.032Z,84.23
2017-12-29T06:29:28.323Z,84.14
2017-12-29T06:30:27.981Z,84.14
2017-12-29T06:31:28.223Z,83.76
2017-12-29T06:32:27.933Z,84.05
2017-12-29T06:33:27.909Z,84.33
2017-12-29T06:34:28.154Z,84.33
2017-12-29T06:35:27.863Z,84.14
2017-12-29T06:36:28.103Z,84.14
2017-12-29T06:37:27.816Z,84.05
2017-12-29T06:38:27.794Z,84.23
2017-12-29T06:39:27.766Z,84.14
2017-12-29T06:40:28.007Z,84.14
2017-12-29T06:41:27.978Z,83.48
2017-12-29T06:42:27.958Z,84.14
2017-12-29T06:43:27.667Z,84.14
2017-12-29T06:44:27.906Z,83.86
2017-12-29T06:45:27.618Z,84.14
2017-12-29T06:46:27.592Z,84.05
2017-12-29T06:47:27.839Z,83.76
2017-12-29T06:48:27.546Z,83.67
2017-12-29T06:49:27.783Z,84.23
2017-12-29T06:50:27.498Z,84.14
2017-12-29T06:51:27.741Z,83.76
2017-12-29T06:52:27.451Z,84.14
2017-12-29T06:53:27.424Z,83.48
2017-12-29T06:54:27.666Z,83.58
2017-12-29T06:55:27.381Z,84.14
2017-12-29T06:56:27.619Z,83.01
2017-12-29T06:57:27.591Z,83.76
2017-12-29T06:58:27.573Z,83.01
2017-12-29T06:59:27.279Z,83.01
2017-12-29T07:00:27.525Z,83.15
2017-12-29T07:01:27.232Z,82.31
2017-12-29T07:02:27.480Z,82.5
2017-12-29T07:03:27.445Z,82.63
2017-12-29T07:04:27.422Z,82.31
2017-12-29T07:05:27.137Z,82.63
2017-12-29T07:06:27.372Z,83.39
2017-12-29T07:07:27.087Z,82.87
2017-12-29T07:08:27.323Z,82.53
2017-12-29T07:09:27.298Z,82.5
2017-12-29T07:10:27.011Z,82.59
2017-12-29T07:11:27.248Z,82.68
2017-12-29T07:12:26.962Z,82.68
2017-12-29T07:13:26.937Z,82.12
2017-12-29T07:14:27.192Z,82.82
2017-12-29T07:15:26.895Z,83.01
2017-12-29T07:16:26.863Z,83.39
2017-12-29T07:17:26.840Z,83.01
2017-12-29T07:18:26.814Z,82.78
2017-12-29T07:19:26.792Z,82.12
2017-12-29T07:20:26.767Z,82.21
2017-12-29T07:21:26.744Z,82.68
2017-12-29T07:22:26.719Z,82.53
2017-12-29T07:23:26.959Z,82.31
2017-12-29T07:24:26.668Z,82.4
2017-12-29T07:25:26.930Z,82.02
2017-12-29T07:26:26.621Z,82.59
2017-12-29T07:27:26.859Z,81.83
2017-12-29T07:28:26.833Z,82.02
2017-12-29T07:29:26.548Z,82.68
2017-12-29T07:30:26.786Z,82.21
2017-12-29T07:31:26.766Z,82.68
2017-12-29T07:32:26.475Z,82.68
2017-12-29T07:33:26.453Z,82.4
2017-12-29T07:34:26.427Z,82.68
2017-12-29T07:35:26.407Z,82.72
2017-12-29T07:36:26.667Z,83.15
2017-12-29T07:37:26.357Z,82.87
2017-12-29T07:38:26.330Z,82.5
2017-12-29T07:39:26.573Z,82.31
2017-12-29T07:40:26.333Z,82.59
2017-12-29T07:41:26.256Z,82.31
2017-12-29T07:42:26.236Z,82.78
2017-12-29T07:43:26.470Z,82.02
2017-12-29T07:44:26.183Z,82.02
2017-12-29T07:45:26.418Z,82.02
2017-12-29T07:46:26.139Z,82.12
2017-12-29T07:47:26.109Z,82.12
2017-12-29T07:48:26.086Z,81.93
2017-12-29T07:49:26.326Z,81.64
2017-12-29T07:50:26.298Z,82.02
2017-12-29T07:51:26.009Z,81.64
2017-12-29T07:52:26.253Z,81.93
2017-12-29T07:53:26.227Z,81.83
2017-12-29T07:54:26.202Z,81.83
2017-12-29T07:55:25.914Z,81.55
2017-12-29T07:56:26.155Z,82.12
2017-12-29T07:57:25.870Z,81.64
2017-12-29T07:58:26.105Z,81.64
2017-12-29T07:59:25.819Z,81.17
2017-12-29T08:00:25.805Z,81.26
2017-12-29T08:01:26.029Z,81.07
2017-12-29T08:02:26.007Z,81.17
2017-12-29T08:03:25.724Z,80.88
2017-12-29T08:04:25.699Z,81.49
2017-12-29T08:05:25.933Z,81.74
2017-12-29T08:06:25.647Z,81.74
2017-12-29T08:07:25.626Z,80.88
2017-12-29T08:08:25.600Z,81.26
2017-12-29T08:09:25.835Z,81.07
2017-12-29T08:10:25.551Z,81.17
2017-12-29T08:11:25.795Z,81.36
2017-12-29T08:12:25.770Z,82.25
2017-12-29T08:13:25.477Z,82.34
2017-12-29T08:14:25.717Z,82.02
2017-12-29T08:15:25.429Z,81.93
2017-12-29T08:16:25.456Z,81.93
2017-12-29T08:17:25.584Z,81.93
2017-12-29T08:18:25.620Z,82.06
2017-12-29T08:19:25.338Z,82.15
2017-12-29T08:20:25.572Z,82.34
2017-12-29T08:21:25.288Z,82.15
2017-12-29T08:22:25.261Z,83.2
2017-12-29T08:23:25.238Z,84.14
2017-12-29T08:24:25.476Z,84.61
2017-12-29T08:25:25.188Z,84.61
2017-12-29T08:26:25.484Z,85.09
2017-12-29T08:27:25.408Z,84.9
2017-12-29T08:28:25.112Z,84.9
2017-12-29T08:29:25.385Z,84.9
2017-12-29T08:30:25.351Z,85.38
2017-12-29T08:31:25.303Z,85.94
2017-12-29T08:32:25.289Z,86.79
2017-12-29T08:33:25.000Z,86.41
2017-12-29T08:34:25.233Z,86.79
2017-12-29T08:35:24.943Z,86.98
2017-12-29T08:36:25.181Z,86.79
2017-12-29T08:37:25.168Z,86.7
2017-12-29T08:38:24.886Z,86.79
2017-12-29T08:39:25.118Z,86.98
2017-12-29T08:40:24.834Z,87.36
2017-12-29T08:41:24.803Z,87.55
2017-12-29T08:42:25.060Z,88.12
2017-12-29T08:43:24.749Z,88.12
2017-12-29T08:44:24.990Z,88.21
2017-12-29T08:45:24.976Z,88.02
2017-12-29T08:46:24.939Z,88.59
2017-12-29T08:47:24.923Z,89.63
2017-12-29T08:48:24.902Z,89.63
2017-12-29T08:49:24.873Z,89.82
2017-12-29T08:50:24.583Z,89.73
2017-12-29T08:51:24.829Z,89.54
2017-12-29T08:52:24.800Z,91.24
2017-12-29T08:53:24.510Z,90.58
2017-12-29T08:54:24.757Z,91.15
2017-12-29T08:55:24.729Z,91.05
2017-12-29T08:56:24.443Z,91.43
2017-12-29T08:57:24.419Z,91.29
2017-12-29T08:58:24.656Z,90.86
2017-12-29T08:59:24.367Z,91.57
2017-12-29T09:00:24.343Z,91.91
2017-12-29T09:01:24.583Z,91.95
2017-12-29T09:02:24.298Z,92.52
2017-12-29T09:03:24.533Z,92.99
2017-12-29T09:04:24.523Z,92.43
2017-12-29T09:05:24.494Z,93.08
2017-12-29T09:06:24.464Z,92.9
2017-12-29T09:07:24.446Z,94.04
2017-12-29T09:08:24.423Z,94.04
2017-12-29T09:09:24.395Z,94.04
2017-12-29T09:10:24.105Z,94.04
2017-12-29T09:11:24.348Z,93.75
2017-12-29T09:12:24.327Z,94.32
2017-12-29T09:13:24.032Z,94.04
2017-12-29T09:14:24.010Z,94.23
2017-12-29T09:15:24.254Z,95.83
2017-12-29T09:16:23.960Z,95.93
2017-12-29T09:17:23.937Z,95.74
2017-12-29T09:18:24.179Z,96.12
2017-12-29T09:19:23.894Z,95.93
2017-12-29T09:20:24.130Z,96.02
2017-12-29T09:21:23.844Z,96.21
2017-12-29T09:22:23.818Z,96.02
2017-12-29T09:23:23.797Z,97.25
2017-12-29T09:24:24.034Z,97.63
2017-12-29T09:25:24.014Z,97.82
2017-12-29T09:26:23.993Z,99.15
2017-12-29T09:27:24.008Z,99.24
2017-12-29T09:28:23.679Z,98.96
2017-12-29T09:29:23.916Z,98.86
2017-12-29T09:30:23.893Z,99.05
2017-12-29T09:31:23.610Z,99.05
2017-12-29T09:32:23.586Z,99.05
2017-12-29T09:33:23.560Z,98.91
2017-12-29T09:34:23.540Z,98.72
2017-12-29T09:35:23.781Z,99.39
2017-12-29T09:36:23.793Z,99.86
2017-12-29T09:37:23.737Z,99.1
2017-12-29T09:38:23.711Z,99.99
2017-12-29T09:39:23.686Z,99.99
2017-12-29T09:40:23.397Z,99.99
2017-12-29T09:41:23.639Z,99.99
2017-12-29T09:42:23.352Z,99.99
2017-12-29T09:43:23.329Z,99.99
2017-12-29T09:44:23.304Z,99.99
2017-12-29T09:45:23.282Z,99.99
2017-12-29T09:46:23.260Z,99.99
2017-12-29T09:47:23.238Z,99.99
2017-12-29T09:48:23.476Z,99.99
2017-12-29T09:49:23.459Z,99.99
2017-12-29T09:50:23.434Z,99.99
2017-12-29T09:51:23.141Z,99.99
2017-12-29T09:52:23.173Z,99.99
2017-12-29T09:53:23.104Z,99.99
2017-12-29T09:54:23.348Z,99.99
2017-12-29T09:55:23.317Z,99.99
2017-12-29T09:56:23.064Z,99.99
2017-12-29T09:57:23.273Z,99.99
2017-12-29T09:58:22.985Z,99.99
2017-12-29T09:59:22.960Z,99.99
2017-12-29T10:00:23.201Z,99.99
2017-12-29T10:01:23.182Z,99.99
2017-12-29T10:02:22.900Z,99.99
2017-12-29T10:03:22.874Z,99.99
2017-12-29T10:04:23.117Z,99.99
2017-12-29T10:05:22.832Z,99.99
2017-12-29T10:06:22.808Z,99.99
2017-12-29T10:07:23.054Z,99.99
2017-12-29T10:08:22.762Z,99.99
2017-12-29T10:09:23.002Z,99.99
2017-12-29T10:10:22.984Z,99.99
2017-12-29T10:11:22.966Z,99.99
2017-12-29T10:12:22.974Z,99.99
2017-12-29T10:13:22.655Z,99.99
2017-12-29T10:14:22.949Z,99.99
2017-12-29T10:15:22.608Z,99.99
2017-12-29T10:16:22.588Z,99.99
2017-12-29T10:17:23.026Z,99.99
2017-12-29T10:18:22.543Z,99.99
2017-12-29T10:19:22.523Z,99.99
2017-12-29T10:20:22.757Z,99.99
2017-12-29T10:21:22.740Z,99.99
2017-12-29T10:22:22.482Z,99.99
2017-12-29T10:23:22.692Z,99.99
2017-12-29T10:24:22.407Z,99.99
2017-12-29T10:25:22.652Z,99.99
2017-12-29T10:26:22.369Z,99.99
2017-12-29T10:27:22.608Z,99.99
2017-12-29T10:28:22.593Z,99.99
2017-12-29T10:29:22.566Z,99.99
2017-12-29T10:30:22.281Z,99.99
2017-12-29T10:31:22.529Z,99.99
2017-12-29T10:32:22.495Z,99.99
2017-12-29T10:33:22.479Z,99.99
2017-12-29T10:34:22.200Z,99.99
2017-12-29T10:35:22.176Z,99.99
2017-12-29T10:36:22.153Z,99.99
2017-12-29T10:37:22.394Z,99.99
2017-12-29T10:38:22.374Z,99.99
2017-12-29T10:39:22.361Z,99.99
2017-12-29T10:40:22.068Z,99.99
2017-12-29T10:41:22.316Z,99.99
2017-12-29T10:42:22.028Z,99.99
2017-12-29T10:43:22.267Z,99.99
2017-12-29T10:44:22.251Z,99.99
2017-12-29T10:45:21.964Z,99.99
2017-12-29T10:46:22.260Z,99.99
2017-12-29T10:47:21.929Z,99.99
2017-12-29T10:48:22.173Z,99.99
2017-12-29T10:49:21.883Z,99.99
2017-12-29T10:50:22.126Z,99.99
2017-12-29T10:51:22.115Z,99.99
2017-12-29T10:52:21.825Z,99.99
2017-12-29T10:53:21.803Z,99.99
2017-12-29T10:54:22.047Z,99.99
2017-12-29T10:55:21.761Z,99.99
2017-12-29T10:56:21.743Z,99.99
2017-12-29T10:57:21.991Z,99.99
2017-12-29T10:58:21.701Z,99.99
2017-12-29T10:59:21.945Z,99.99
2017-12-29T11:00:21.663Z,99.99
2017-12-29T11:01:21.906Z,99.99
2017-12-29T11:02:21.626Z,99.99
2017-12-29T11:03:21.869Z,99.99
2017-12-29T11:04:21.845Z,99.99
2017-12-29T11:05:21.561Z,99.99
2017-12-29T11:06:21.541Z,99.99
2017-12-29T11:07:21.521Z,99.99
2017-12-29T11:08:21.766Z,99.99
2017-12-29T11:09:21.747Z,99.99
2017-12-29T11:10:21.467Z,99.99
2017-12-29T11:11:21.445Z,99.99
2017-12-29T11:12:21.422Z,99.99
2017-12-29T11:13:21.407Z,99.99
2017-12-29T11:14:21.409Z,99.99
2017-12-29T11:15:21.366Z,99.99
2017-12-29T11:16:21.617Z,99.99
2017-12-29T11:17:21.590Z,99.99
2017-12-29T11:18:21.570Z,99.99
2017-12-29T11:19:21.290Z,99.99
2017-12-29T11:20:21.533Z,99.99
2017-12-29T11:21:21.251Z,99.99
2017-12-29T11:22:21.231Z,99.99
2017-12-29T11:23:21.475Z,99.99
2017-12-29T11:24:21.200Z,99.99
2017-12-29T11:25:21.441Z,99.99
2017-12-29T11:26:21.416Z,99.99
2017-12-29T11:27:21.396Z,99.99
2017-12-29T11:28:21.113Z,99.99
2017-12-29T11:29:21.361Z,99.99
2017-12-29T11:30:21.339Z,99.99
2017-12-29T11:31:21.394Z,99.99
2017-12-29T11:32:21.300Z,99.99
2017-12-29T11:33:21.012Z,99.99
2017-12-29T11:34:21.297Z,99.99
2017-12-29T11:35:21.235Z,99.99
2017-12-29T11:36:20.955Z,99.99
2017-12-29T11:37:21.195Z,99.99
2017-12-29T11:38:21.176Z,99.99
2017-12-29T11:39:20.896Z,99.99
2017-12-29T11:40:21.135Z,99.99
2017-12-29T11:41:20.852Z,99.99
2017-12-29T11:42:21.098Z,99.99
2017-12-29T11:43:20.813Z,99.99
2017-12-29T11:44:20.789Z,99.99
2017-12-29T11:45:20.775Z,99.99
2017-12-29T11:46:20.750Z,99.99
2017-12-29T11:47:20.733Z,99.99
2017-12-29T11:48:20.714Z,99.99
2017-12-29T11:49:20.691Z,99.99
2017-12-29T11:50:20.672Z,99.99
2017-12-29T11:51:20.651Z,99.99
2017-12-29T11:52:20.632Z,99.99
2017-12-29T11:53:20.613Z,99.99
2017-12-29T11:54:20.855Z,99.99
2017-12-29T11:55:20.833Z,99.99
2017-12-29T11:56:20.811Z,99.99
2017-12-29T11:57:20.526Z,99.99
2017-12-29T11:58:20.772Z,99.99
2017-12-29T11:59:20.746Z,99.99
2017-12-29T12:00:20.464Z,99.99
2017-12-29T12:01:20.705Z,99.99
2017-12-29T12:02:20.422Z,99.99
2017-12-29T12:03:20.666Z,99.99
2017-12-29T12:04:20.645Z,99.99
2017-12-29T12:05:20.371Z,99.99
2017-12-29T12:06:20.338Z,99.99
2017-12-29T12:07:20.582Z,99.99
2017-12-29T12:08:20.565Z,99.99
2017-12-29T12:09:20.279Z,99.99
2017-12-29T12:10:20.256Z,99.99
2017-12-29T12:11:20.503Z,99.99
2017-12-29T12:12:20.475Z,99.99
2017-12-29T12:13:20.457Z,99.99
2017-12-29T12:14:20.438Z,99.99
2017-12-29T12:15:20.424Z,99.99
2017-12-29T12:16:20.132Z,99.99
2017-12-29T12:17:20.312Z,99.99
2017-12-29T12:18:20.359Z,99.99
2017-12-29T12:19:20.071Z,99.99
2017-12-29T12:20:20.318Z,99.99
2017-12-29T12:21:20.340Z,99.99
2017-12-29T12:22:20.010Z,99.99
2017-12-29T12:23:20.250Z,99.99
2017-12-29T12:24:19.970Z,99.99
2017-12-29T12:25:19.945Z,99.99
2017-12-29T12:26:20.195Z,99.99
2017-12-29T12:27:19.904Z,99.99
2017-12-29T12:28:20.147Z,99.99
2017-12-29T12:29:20.130Z,99.99
2017-12-29T12:30:20.104Z,99.99
2017-12-29T12:31:20.095Z,99.99
2017-12-29T12:32:20.070Z,99.99
2017-12-29T12:33:19.779Z,99.99
2017-12-29T12:34:19.765Z,99.99
2017-12-29T12:35:20.002Z,99.99
2017-12-29T12:36:19.986Z,99.99
2017-12-29T12:37:19.962Z,99.99
2017-12-29T12:38:19.952Z,99.99
2017-12-29T12:39:19.920Z,99.99
2017-12-29T12:40:19.904Z,99.99
2017-12-29T12:41:19.876Z,99.99
2017-12-29T12:42:19.858Z,99.99
2017-12-29T12:43:19.578Z,99.99
2017-12-29T12:44:19.551Z,99.99
2017-12-29T12:45:19.797Z,99.99
2017-12-29T12:46:19.770Z,99.99
2017-12-29T12:47:19.484Z,99.99
2017-12-29T12:48:19.735Z,99.99
2017-12-29T12:49:19.446Z,99.99
2017-12-29T12:50:19.686Z,99.99
2017-12-29T12:51:19.403Z,99.99
2017-12-29T12:52:19.646Z,99.99
2017-12-29T12:53:19.623Z,99.99
2017-12-29T12:54:19.601Z,99.99
2017-12-29T12:55:19.589Z,99.99